sensor_id;sensor_type;location;lat;lon;timestamp;P1;durP1;ratioP1;P2;durP2;ratioP2
38465;SDS011;24244;51.950;5.902;2024-01-10T00:00:42;3.80;;;2.35;;
38465;SDS011;24244;51.950;5.902;2024-01-10T00:03:09;2.60;;;1.45;;
38465;SDS011;24244;51.950;5.902;2024-01-10T00:05:36;2.30;;;1.70;;
38465;SDS011;24244;51.950;5.902;2024-01-10T00:08:03;2.63;;;2.00;;
38465;SDS011;24244;51.950;5.902;2024-01-10T00:10:31;2.58;;;1.70;;
38465;SDS011;24244;51.950;5.902;2024-01-10T00:12:59;4.13;;;2.05;;
38465;SDS011;24244;51.950;5.902;2024-01-10T00:15:26;2.78;;;1.65;;
38465;SDS011;24244;51.950;5.902;2024-01-10T00:17:53;3.25;;;1.92;;
38465;SDS011;24244;51.950;5.902;2024-01-10T00:20:20;2.25;;;1.73;;
38465;SDS011;24244;51.950;5.902;2024-01-10T00:22:47;2.90;;;1.75;;
38465;SDS011;24244;51.950;5.902;2024-01-10T00:25:14;3.78;;;1.65;;
38465;SDS011;24244;51.950;5.902;2024-01-10T00:27:41;3.17;;;1.95;;
38465;SDS011;24244;51.950;5.902;2024-01-10T00:30:09;2.83;;;2.13;;
38465;SDS011;24244;51.950;5.902;2024-01-10T00:32:36;2.00;;;1.42;;
38465;SDS011;24244;51.950;5.902;2024-01-10T00:35:04;3.78;;;1.83;;
38465;SDS011;24244;51.950;5.902;2024-01-10T00:37:31;3.83;;;1.67;;
38465;SDS011;24244;51.950;5.902;2024-01-10T00:39:58;3.38;;;1.80;;
38465;SDS011;24244;51.950;5.902;2024-01-10T00:42:24;3.53;;;1.92;;
38465;SDS011;24244;51.950;5.902;2024-01-10T00:44:51;3.25;;;2.08;;
38465;SDS011;24244;51.950;5.902;2024-01-10T00:47:19;2.90;;;1.30;;
38465;SDS011;24244;51.950;5.902;2024-01-10T00:49:46;2.88;;;1.85;;
38465;SDS011;24244;51.950;5.902;2024-01-10T00:52:13;2.58;;;1.98;;
38465;SDS011;24244;51.950;5.902;2024-01-10T00:54:40;2.30;;;1.65;;
38465;SDS011;24244;51.950;5.902;2024-01-10T00:57:11;3.55;;;1.65;;
38465;SDS011;24244;51.950;5.902;2024-01-10T00:59:37;2.08;;;1.88;;
38465;SDS011;24244;51.950;5.902;2024-01-10T01:02:04;2.70;;;1.50;;
38465;SDS011;24244;51.950;5.902;2024-01-10T01:04:33;3.28;;;2.05;;
38465;SDS011;24244;51.950;5.902;2024-01-10T01:07:00;2.35;;;1.75;;
38465;SDS011;24244;51.950;5.902;2024-01-10T01:09:26;1.95;;;1.67;;
38465;SDS011;24244;51.950;5.902;2024-01-10T01:11:54;3.30;;;1.83;;
38465;SDS011;24244;51.950;5.902;2024-01-10T01:14:20;3.05;;;1.92;;
38465;SDS011;24244;51.950;5.902;2024-01-10T01:16:47;2.97;;;2.22;;
38465;SDS011;24244;51.950;5.902;2024-01-10T01:19:20;3.20;;;1.98;;
38465;SDS011;24244;51.950;5.902;2024-01-10T01:21:49;2.50;;;1.40;;
38465;SDS011;24244;51.950;5.902;2024-01-10T01:24:16;2.67;;;1.58;;
38465;SDS011;24244;51.950;5.902;2024-01-10T01:26:43;2.35;;;1.67;;
38465;SDS011;24244;51.950;5.902;2024-01-10T01:29:11;3.47;;;2.08;;
38465;SDS011;24244;51.950;5.902;2024-01-10T01:31:38;3.45;;;1.83;;
38465;SDS011;24244;51.950;5.902;2024-01-10T01:34:05;3.67;;;1.98;;
38465;SDS011;24244;51.950;5.902;2024-01-10T01:36:32;3.67;;;1.80;;
38465;SDS011;24244;51.950;5.902;2024-01-10T01:39:00;3.40;;;1.65;;
38465;SDS011;24244;51.950;5.902;2024-01-10T01:41:27;2.88;;;2.00;;
38465;SDS011;24244;51.950;5.902;2024-01-10T01:43:54;3.22;;;1.98;;
38465;SDS011;24244;51.950;5.902;2024-01-10T01:46:21;2.97;;;2.00;;
38465;SDS011;24244;51.950;5.902;2024-01-10T01:48:48;4.65;;;2.63;;
38465;SDS011;24244;51.950;5.902;2024-01-10T01:51:17;3.33;;;2.47;;
38465;SDS011;24244;51.950;5.902;2024-01-10T01:53:46;4.38;;;2.33;;
38465;SDS011;24244;51.950;5.902;2024-01-10T01:56:16;2.22;;;1.55;;
38465;SDS011;24244;51.950;5.902;2024-01-10T01:58:45;3.13;;;1.90;;
38465;SDS011;24244;51.950;5.902;2024-01-10T02:01:14;2.10;;;1.15;;
38465;SDS011;24244;51.950;5.902;2024-01-10T02:03:41;4.13;;;1.80;;
38465;SDS011;24244;51.950;5.902;2024-01-10T02:06:08;2.20;;;1.75;;
38465;SDS011;24244;51.950;5.902;2024-01-10T02:08:38;3.13;;;2.30;;
38465;SDS011;24244;51.950;5.902;2024-01-10T02:11:05;4.13;;;3.63;;
38465;SDS011;24244;51.950;5.902;2024-01-10T02:13:34;3.05;;;2.60;;
38465;SDS011;24244;51.950;5.902;2024-01-10T02:16:03;2.88;;;1.77;;
38465;SDS011;24244;51.950;5.902;2024-01-10T02:18:31;2.72;;;1.85;;
38465;SDS011;24244;51.950;5.902;2024-01-10T02:20:58;3.67;;;2.95;;
38465;SDS011;24244;51.950;5.902;2024-01-10T02:23:25;3.30;;;1.95;;
38465;SDS011;24244;51.950;5.902;2024-01-10T02:25:54;4.13;;;2.17;;
38465;SDS011;24244;51.950;5.902;2024-01-10T02:28:20;2.72;;;2.05;;
38465;SDS011;24244;51.950;5.902;2024-01-10T02:30:50;2.92;;;1.75;;
38465;SDS011;24244;51.950;5.902;2024-01-10T02:33:17;3.10;;;2.13;;
38465;SDS011;24244;51.950;5.902;2024-01-10T02:35:44;3.45;;;1.67;;
38465;SDS011;24244;51.950;5.902;2024-01-10T02:38:11;2.53;;;1.58;;
38465;SDS011;24244;51.950;5.902;2024-01-10T02:40:39;3.28;;;1.80;;
38465;SDS011;24244;51.950;5.902;2024-01-10T02:43:07;2.90;;;2.15;;
38465;SDS011;24244;51.950;5.902;2024-01-10T02:45:34;3.22;;;1.60;;
38465;SDS011;24244;51.950;5.902;2024-01-10T02:48:02;2.80;;;2.08;;
38465;SDS011;24244;51.950;5.902;2024-01-10T02:50:29;2.45;;;1.88;;
38465;SDS011;24244;51.950;5.902;2024-01-10T02:52:56;4.10;;;1.95;;
38465;SDS011;24244;51.950;5.902;2024-01-10T02:55:23;2.75;;;1.83;;
38465;SDS011;24244;51.950;5.902;2024-01-10T02:57:50;4.10;;;1.90;;
38465;SDS011;24244;51.950;5.902;2024-01-10T03:00:18;2.55;;;1.60;;
38465;SDS011;24244;51.950;5.902;2024-01-10T03:02:45;3.75;;;2.10;;
38465;SDS011;24244;51.950;5.902;2024-01-10T03:05:12;3.25;;;1.75;;
38465;SDS011;24244;51.950;5.902;2024-01-10T03:07:39;3.50;;;1.60;;
38465;SDS011;24244;51.950;5.902;2024-01-10T03:10:06;3.97;;;1.83;;
38465;SDS011;24244;51.950;5.902;2024-01-10T03:12:33;2.72;;;1.85;;
38465;SDS011;24244;51.950;5.902;2024-01-10T03:15:03;3.60;;;2.03;;
38465;SDS011;24244;51.950;5.902;2024-01-10T03:17:32;3.97;;;3.33;;
38465;SDS011;24244;51.950;5.902;2024-01-10T03:20:00;2.53;;;1.83;;
38465;SDS011;24244;51.950;5.902;2024-01-10T03:22:27;3.28;;;1.75;;
38465;SDS011;24244;51.950;5.902;2024-01-10T03:24:56;3.35;;;1.60;;
38465;SDS011;24244;51.950;5.902;2024-01-10T03:27:23;2.78;;;2.05;;
38465;SDS011;24244;51.950;5.902;2024-01-10T03:29:51;3.75;;;3.45;;
38465;SDS011;24244;51.950;5.902;2024-01-10T03:32:18;3.60;;;2.55;;
38465;SDS011;24244;51.950;5.902;2024-01-10T03:34:46;2.85;;;1.98;;
38465;SDS011;24244;51.950;5.902;2024-01-10T03:37:13;2.60;;;1.55;;
38465;SDS011;24244;51.950;5.902;2024-01-10T03:39:39;3.60;;;2.35;;
38465;SDS011;24244;51.950;5.902;2024-01-10T03:42:06;3.72;;;2.08;;
38465;SDS011;24244;51.950;5.902;2024-01-10T03:44:33;2.72;;;1.55;;
38465;SDS011;24244;51.950;5.902;2024-01-10T03:47:00;3.08;;;1.67;;
38465;SDS011;24244;51.950;5.902;2024-01-10T03:49:27;2.75;;;1.70;;
38465;SDS011;24244;51.950;5.902;2024-01-10T03:51:55;4.50;;;2.38;;
38465;SDS011;24244;51.950;5.902;2024-01-10T03:54:22;4.28;;;1.95;;
38465;SDS011;24244;51.950;5.902;2024-01-10T03:56:49;3.47;;;2.08;;
38465;SDS011;24244;51.950;5.902;2024-01-10T03:59:16;3.65;;;1.67;;
38465;SDS011;24244;51.950;5.902;2024-01-10T04:01:43;2.42;;;1.77;;
38465;SDS011;24244;51.950;5.902;2024-01-10T04:04:10;3.08;;;1.92;;
38465;SDS011;24244;51.950;5.902;2024-01-10T04:06:37;3.05;;;1.88;;
38465;SDS011;24244;51.950;5.902;2024-01-10T04:09:05;2.78;;;1.75;;
38465;SDS011;24244;51.950;5.902;2024-01-10T04:11:35;3.55;;;2.03;;
38465;SDS011;24244;51.950;5.902;2024-01-10T04:14:02;1.92;;;1.50;;
38465;SDS011;24244;51.950;5.902;2024-01-10T04:16:30;3.22;;;2.15;;
38465;SDS011;24244;51.950;5.902;2024-01-10T04:18:57;3.50;;;2.05;;
38465;SDS011;24244;51.950;5.902;2024-01-10T04:21:24;3.30;;;2.05;;
38465;SDS011;24244;51.950;5.902;2024-01-10T04:23:53;3.75;;;1.92;;
38465;SDS011;24244;51.950;5.902;2024-01-10T04:26:21;4.60;;;2.83;;
38465;SDS011;24244;51.950;5.902;2024-01-10T04:28:48;5.03;;;2.47;;
38465;SDS011;24244;51.950;5.902;2024-01-10T04:31:15;3.80;;;3.47;;
38465;SDS011;24244;51.950;5.902;2024-01-10T04:33:42;4.05;;;3.10;;
38465;SDS011;24244;51.950;5.902;2024-01-10T04:36:09;3.53;;;1.90;;
38465;SDS011;24244;51.950;5.902;2024-01-10T04:38:36;2.63;;;2.30;;
38465;SDS011;24244;51.950;5.902;2024-01-10T04:41:03;2.53;;;1.63;;
38465;SDS011;24244;51.950;5.902;2024-01-10T04:43:32;2.72;;;1.42;;
38465;SDS011;24244;51.950;5.902;2024-01-10T04:45:58;3.10;;;2.80;;
38465;SDS011;24244;51.950;5.902;2024-01-10T04:48:25;4.97;;;3.10;;
38465;SDS011;24244;51.950;5.902;2024-01-10T04:50:52;3.30;;;2.05;;
38465;SDS011;24244;51.950;5.902;2024-01-10T04:53:20;4.53;;;2.53;;
38465;SDS011;24244;51.950;5.902;2024-01-10T04:55:47;4.25;;;2.15;;
38465;SDS011;24244;51.950;5.902;2024-01-10T04:58:17;4.00;;;2.25;;
38465;SDS011;24244;51.950;5.902;2024-01-10T05:00:46;3.17;;;1.85;;
38465;SDS011;24244;51.950;5.902;2024-01-10T05:03:13;3.72;;;1.90;;
38465;SDS011;24244;51.950;5.902;2024-01-10T05:05:41;2.97;;;2.20;;
38465;SDS011;24244;51.950;5.902;2024-01-10T05:08:08;3.17;;;2.28;;
38465;SDS011;24244;51.950;5.902;2024-01-10T05:10:35;2.70;;;1.63;;
38465;SDS011;24244;51.950;5.902;2024-01-10T05:13:02;2.90;;;2.30;;
38465;SDS011;24244;51.950;5.902;2024-01-10T05:15:30;3.03;;;2.17;;
38465;SDS011;24244;51.950;5.902;2024-01-10T05:17:58;2.97;;;1.83;;
38465;SDS011;24244;51.950;5.902;2024-01-10T05:20:25;4.18;;;2.13;;
38465;SDS011;24244;51.950;5.902;2024-01-10T05:22:52;4.18;;;2.28;;
38465;SDS011;24244;51.950;5.902;2024-01-10T05:25:19;4.43;;;2.35;;
38465;SDS011;24244;51.950;5.902;2024-01-10T05:27:46;2.90;;;1.85;;
38465;SDS011;24244;51.950;5.902;2024-01-10T05:30:13;5.82;;;3.78;;
38465;SDS011;24244;51.950;5.902;2024-01-10T05:32:40;3.78;;;2.30;;
38465;SDS011;24244;51.950;5.902;2024-01-10T05:35:09;2.92;;;2.20;;
38465;SDS011;24244;51.950;5.902;2024-01-10T05:37:36;3.75;;;1.90;;
38465;SDS011;24244;51.950;5.902;2024-01-10T05:40:04;4.05;;;2.45;;
38465;SDS011;24244;51.950;5.902;2024-01-10T05:42:32;4.00;;;3.65;;
38465;SDS011;24244;51.950;5.902;2024-01-10T05:45:00;4.65;;;2.30;;
38465;SDS011;24244;51.950;5.902;2024-01-10T05:47:27;8.07;;;2.60;;
38465;SDS011;24244;51.950;5.902;2024-01-10T05:49:54;2.42;;;1.80;;
38465;SDS011;24244;51.950;5.902;2024-01-10T05:52:23;4.72;;;2.35;;
38465;SDS011;24244;51.950;5.902;2024-01-10T05:54:50;3.30;;;2.00;;
38465;SDS011;24244;51.950;5.902;2024-01-10T05:57:17;3.63;;;2.47;;
38465;SDS011;24244;51.950;5.902;2024-01-10T05:59:44;5.72;;;3.45;;
38465;SDS011;24244;51.950;5.902;2024-01-10T06:02:11;4.78;;;2.03;;
38465;SDS011;24244;51.950;5.902;2024-01-10T06:04:37;3.20;;;2.80;;
38465;SDS011;24244;51.950;5.902;2024-01-10T06:07:04;3.50;;;2.40;;
38465;SDS011;24244;51.950;5.902;2024-01-10T06:09:33;4.70;;;2.40;;
38465;SDS011;24244;51.950;5.902;2024-01-10T06:12:00;3.70;;;1.77;;
38465;SDS011;24244;51.950;5.902;2024-01-10T06:14:27;5.00;;;3.05;;
38465;SDS011;24244;51.950;5.902;2024-01-10T06:16:54;2.78;;;2.20;;
38465;SDS011;24244;51.950;5.902;2024-01-10T06:19:22;3.78;;;2.17;;
38465;SDS011;24244;51.950;5.902;2024-01-10T06:21:49;3.25;;;2.25;;
38465;SDS011;24244;51.950;5.902;2024-01-10T06:24:16;4.50;;;2.55;;
38465;SDS011;24244;51.950;5.902;2024-01-10T06:26:45;3.15;;;1.92;;
38465;SDS011;24244;51.950;5.902;2024-01-10T06:29:11;3.95;;;2.05;;
38465;SDS011;24244;51.950;5.902;2024-01-10T06:31:38;3.45;;;2.25;;
38465;SDS011;24244;51.950;5.902;2024-01-10T06:34:09;3.13;;;1.88;;
38465;SDS011;24244;51.950;5.902;2024-01-10T06:36:36;3.97;;;2.05;;
38465;SDS011;24244;51.950;5.902;2024-01-10T06:39:03;5.40;;;2.50;;
38465;SDS011;24244;51.950;5.902;2024-01-10T06:41:30;4.43;;;2.78;;
38465;SDS011;24244;51.950;5.902;2024-01-10T06:43:59;5.22;;;4.03;;
38465;SDS011;24244;51.950;5.902;2024-01-10T06:46:30;4.35;;;2.28;;
38465;SDS011;24244;51.950;5.902;2024-01-10T06:48:58;3.95;;;2.25;;
38465;SDS011;24244;51.950;5.902;2024-01-10T06:51:25;4.43;;;2.08;;
38465;SDS011;24244;51.950;5.902;2024-01-10T06:53:55;5.35;;;2.92;;
38465;SDS011;24244;51.950;5.902;2024-01-10T06:56:29;4.57;;;2.72;;
38465;SDS011;24244;51.950;5.902;2024-01-10T06:58:56;7.15;;;3.28;;
38465;SDS011;24244;51.950;5.902;2024-01-10T07:01:25;5.80;;;2.45;;
38465;SDS011;24244;51.950;5.902;2024-01-10T07:03:51;5.22;;;4.25;;
38465;SDS011;24244;51.950;5.902;2024-01-10T07:06:21;4.80;;;2.92;;
38465;SDS011;24244;51.950;5.902;2024-01-10T07:08:49;4.22;;;2.97;;
38465;SDS011;24244;51.950;5.902;2024-01-10T07:11:17;6.65;;;3.90;;
38465;SDS011;24244;51.950;5.902;2024-01-10T07:13:44;4.60;;;2.55;;
38465;SDS011;24244;51.950;5.902;2024-01-10T07:16:11;6.32;;;2.80;;
38465;SDS011;24244;51.950;5.902;2024-01-10T07:18:43;5.35;;;3.20;;
38465;SDS011;24244;51.950;5.902;2024-01-10T07:21:12;5.68;;;3.08;;
38465;SDS011;24244;51.950;5.902;2024-01-10T07:23:38;7.10;;;3.13;;
38465;SDS011;24244;51.950;5.902;2024-01-10T07:26:07;4.72;;;2.50;;
38465;SDS011;24244;51.950;5.902;2024-01-10T07:28:35;5.40;;;2.45;;
38465;SDS011;24244;51.950;5.902;2024-01-10T07:31:01;5.05;;;2.30;;
38465;SDS011;24244;51.950;5.902;2024-01-10T07:33:29;5.60;;;3.22;;
38465;SDS011;24244;51.950;5.902;2024-01-10T07:35:58;4.97;;;2.55;;
38465;SDS011;24244;51.950;5.902;2024-01-10T07:38:28;5.30;;;4.72;;
38465;SDS011;24244;51.950;5.902;2024-01-10T07:40:55;6.40;;;2.83;;
38465;SDS011;24244;51.950;5.902;2024-01-10T07:43:22;6.57;;;3.17;;
38465;SDS011;24244;51.950;5.902;2024-01-10T07:45:49;4.60;;;2.75;;
38465;SDS011;24244;51.950;5.902;2024-01-10T07:48:16;4.35;;;2.65;;
38465;SDS011;24244;51.950;5.902;2024-01-10T07:50:43;5.57;;;2.85;;
38465;SDS011;24244;51.950;5.902;2024-01-10T07:53:11;3.30;;;2.63;;
38465;SDS011;24244;51.950;5.902;2024-01-10T07:55:39;5.40;;;2.78;;
38465;SDS011;24244;51.950;5.902;2024-01-10T07:58:06;5.18;;;2.47;;
38465;SDS011;24244;51.950;5.902;2024-01-10T08:00:34;5.85;;;3.67;;
38465;SDS011;24244;51.950;5.902;2024-01-10T08:03:02;5.28;;;3.47;;
38465;SDS011;24244;51.950;5.902;2024-01-10T08:05:30;5.63;;;2.83;;
38465;SDS011;24244;51.950;5.902;2024-01-10T08:07:57;6.47;;;3.17;;
38465;SDS011;24244;51.950;5.902;2024-01-10T08:10:26;7.00;;;3.85;;
38465;SDS011;24244;51.950;5.902;2024-01-10T08:12:57;4.78;;;2.42;;
38465;SDS011;24244;51.950;5.902;2024-01-10T08:15:24;5.88;;;3.33;;
38465;SDS011;24244;51.950;5.902;2024-01-10T08:17:51;7.45;;;3.80;;
38465;SDS011;24244;51.950;5.902;2024-01-10T08:20:22;5.82;;;2.97;;
38465;SDS011;24244;51.950;5.902;2024-01-10T08:22:49;7.32;;;3.55;;
38465;SDS011;24244;51.950;5.902;2024-01-10T08:25:16;6.60;;;3.42;;
38465;SDS011;24244;51.950;5.902;2024-01-10T08:27:46;5.55;;;3.30;;
38465;SDS011;24244;51.950;5.902;2024-01-10T08:30:13;5.47;;;3.72;;
38465;SDS011;24244;51.950;5.902;2024-01-10T08:32:41;7.35;;;3.50;;
38465;SDS011;24244;51.950;5.902;2024-01-10T08:35:08;9.60;;;4.22;;
38465;SDS011;24244;51.950;5.902;2024-01-10T08:37:36;6.25;;;3.40;;
38465;SDS011;24244;51.950;5.902;2024-01-10T08:40:04;6.70;;;3.95;;
38465;SDS011;24244;51.950;5.902;2024-01-10T08:42:36;6.43;;;3.58;;
38465;SDS011;24244;51.950;5.902;2024-01-10T08:45:06;8.93;;;3.90;;
38465;SDS011;24244;51.950;5.902;2024-01-10T08:47:37;6.30;;;3.22;;
38465;SDS011;24244;51.950;5.902;2024-01-10T08:50:05;9.68;;;3.92;;
38465;SDS011;24244;51.950;5.902;2024-01-10T08:52:35;6.10;;;3.22;;
38465;SDS011;24244;51.950;5.902;2024-01-10T08:55:05;6.38;;;3.70;;
38465;SDS011;24244;51.950;5.902;2024-01-10T08:57:38;5.97;;;3.47;;
38465;SDS011;24244;51.950;5.902;2024-01-10T09:00:14;7.32;;;3.28;;
38465;SDS011;24244;51.950;5.902;2024-01-10T09:02:41;8.73;;;3.95;;
38465;SDS011;24244;51.950;5.902;2024-01-10T09:05:08;8.50;;;3.85;;
38465;SDS011;24244;51.950;5.902;2024-01-10T09:07:38;8.15;;;4.78;;
38465;SDS011;24244;51.950;5.902;2024-01-10T09:10:06;6.88;;;3.75;;
38465;SDS011;24244;51.950;5.902;2024-01-10T09:12:34;6.72;;;3.45;;
38465;SDS011;24244;51.950;5.902;2024-01-10T09:15:01;8.65;;;3.72;;
38465;SDS011;24244;51.950;5.902;2024-01-10T09:17:30;8.00;;;5.70;;
38465;SDS011;24244;51.950;5.902;2024-01-10T09:19:57;8.52;;;3.90;;
38465;SDS011;24244;51.950;5.902;2024-01-10T09:22:26;7.18;;;3.38;;
38465;SDS011;24244;51.950;5.902;2024-01-10T09:24:54;7.30;;;4.50;;
38465;SDS011;24244;51.950;5.902;2024-01-10T09:27:21;6.35;;;3.65;;
38465;SDS011;24244;51.950;5.902;2024-01-10T09:29:49;8.27;;;3.55;;
38465;SDS011;24244;51.950;5.902;2024-01-10T09:32:16;5.88;;;3.45;;
38465;SDS011;24244;51.950;5.902;2024-01-10T09:34:44;5.88;;;3.30;;
38465;SDS011;24244;51.950;5.902;2024-01-10T09:37:11;6.13;;;3.17;;
38465;SDS011;24244;51.950;5.902;2024-01-10T09:39:39;7.30;;;3.95;;
38465;SDS011;24244;51.950;5.902;2024-01-10T09:42:06;7.20;;;4.05;;
38465;SDS011;24244;51.950;5.902;2024-01-10T09:44:33;4.88;;;3.67;;
38465;SDS011;24244;51.950;5.902;2024-01-10T09:47:00;6.70;;;3.92;;
38465;SDS011;24244;51.950;5.902;2024-01-10T09:49:27;8.13;;;4.05;;
38465;SDS011;24244;51.950;5.902;2024-01-10T09:51:58;6.13;;;3.38;;
38465;SDS011;24244;51.950;5.902;2024-01-10T09:54:29;5.75;;;3.13;;
38465;SDS011;24244;51.950;5.902;2024-01-10T09:56:57;10.00;;;3.42;;
38465;SDS011;24244;51.950;5.902;2024-01-10T09:59:24;7.47;;;4.13;;
38465;SDS011;24244;51.950;5.902;2024-01-10T10:01:52;5.35;;;2.97;;
38465;SDS011;24244;51.950;5.902;2024-01-10T10:04:20;7.70;;;3.70;;
38465;SDS011;24244;51.950;5.902;2024-01-10T10:06:59;6.25;;;3.35;;
38465;SDS011;24244;51.950;5.902;2024-01-10T10:09:30;6.07;;;4.53;;
38465;SDS011;24244;51.950;5.902;2024-01-10T10:11:58;6.20;;;3.35;;
38465;SDS011;24244;51.950;5.902;2024-01-10T10:14:29;7.68;;;4.22;;
38465;SDS011;24244;51.950;5.902;2024-01-10T10:17:00;6.78;;;3.28;;
38465;SDS011;24244;51.950;5.902;2024-01-10T10:19:41;9.27;;;5.15;;
38465;SDS011;24244;51.950;5.902;2024-01-10T10:22:10;7.60;;;3.42;;
38465;SDS011;24244;51.950;5.902;2024-01-10T10:24:37;6.95;;;3.42;;
38465;SDS011;24244;51.950;5.902;2024-01-10T10:27:07;6.20;;;3.75;;
38465;SDS011;24244;51.950;5.902;2024-01-10T10:29:36;7.05;;;3.38;;
38465;SDS011;24244;51.950;5.902;2024-01-10T10:32:04;7.00;;;3.70;;
38465;SDS011;24244;51.950;5.902;2024-01-10T10:34:32;10.55;;;3.60;;
38465;SDS011;24244;51.950;5.902;2024-01-10T10:37:00;8.48;;;4.68;;
38465;SDS011;24244;51.950;5.902;2024-01-10T10:39:30;7.65;;;5.65;;
38465;SDS011;24244;51.950;5.902;2024-01-10T10:41:57;7.38;;;3.92;;
38465;SDS011;24244;51.950;5.902;2024-01-10T10:44:24;8.80;;;3.55;;
38465;SDS011;24244;51.950;5.902;2024-01-10T10:46:52;5.15;;;3.30;;
38465;SDS011;24244;51.950;5.902;2024-01-10T10:49:38;8.00;;;5.10;;
38465;SDS011;24244;51.950;5.902;2024-01-10T10:52:11;6.57;;;4.55;;
38465;SDS011;24244;51.950;5.902;2024-01-10T10:54:40;7.43;;;3.85;;
38465;SDS011;24244;51.950;5.902;2024-01-10T10:57:07;6.43;;;4.10;;
38465;SDS011;24244;51.950;5.902;2024-01-10T10:59:36;7.60;;;5.68;;
38465;SDS011;24244;51.950;5.902;2024-01-10T11:02:04;7.78;;;3.38;;
38465;SDS011;24244;51.950;5.902;2024-01-10T11:04:34;4.90;;;2.83;;
38465;SDS011;24244;51.950;5.902;2024-01-10T11:07:05;8.07;;;3.95;;
38465;SDS011;24244;51.950;5.902;2024-01-10T11:09:32;6.22;;;3.58;;
38465;SDS011;24244;51.950;5.902;2024-01-10T11:12:10;7.28;;;3.72;;
38465;SDS011;24244;51.950;5.902;2024-01-10T11:14:54;7.00;;;4.28;;
38465;SDS011;24244;51.950;5.902;2024-01-10T11:17:40;6.65;;;3.53;;
38465;SDS011;24244;51.950;5.902;2024-01-10T11:23:25;6.60;;;2.80;;
38465;SDS011;24244;51.950;5.902;2024-01-10T11:26:05;7.20;;;3.45;;
38465;SDS011;24244;51.950;5.902;2024-01-10T11:28:36;7.85;;;4.07;;
38465;SDS011;24244;51.950;5.902;2024-01-10T11:33:34;5.40;;;3.05;;
38465;SDS011;24244;51.950;5.902;2024-01-10T11:36:08;6.38;;;3.00;;
38465;SDS011;24244;51.950;5.902;2024-01-10T11:38:48;6.97;;;3.63;;
38465;SDS011;24244;51.950;5.902;2024-01-10T11:41:22;6.15;;;3.65;;
38465;SDS011;24244;51.950;5.902;2024-01-10T11:47:07;7.95;;;3.08;;
38465;SDS011;24244;51.950;5.902;2024-01-10T11:49:35;9.30;;;4.18;;
38465;SDS011;24244;51.950;5.902;2024-01-10T11:52:02;7.75;;;3.88;;
38465;SDS011;24244;51.950;5.902;2024-01-10T11:54:40;7.63;;;4.45;;
38465;SDS011;24244;51.950;5.902;2024-01-10T11:57:11;6.78;;;3.90;;
38465;SDS011;24244;51.950;5.902;2024-01-10T11:59:40;8.20;;;3.17;;
38465;SDS011;24244;51.950;5.902;2024-01-10T12:02:11;8.63;;;4.10;;
38465;SDS011;24244;51.950;5.902;2024-01-10T12:04:39;5.50;;;2.95;;
38465;SDS011;24244;51.950;5.902;2024-01-10T12:07:14;7.40;;;3.30;;
38465;SDS011;24244;51.950;5.902;2024-01-10T12:09:42;6.60;;;3.88;;
38465;SDS011;24244;51.950;5.902;2024-01-10T12:12:11;6.13;;;3.33;;
38465;SDS011;24244;51.950;5.902;2024-01-10T12:14:39;7.38;;;3.60;;
38465;SDS011;24244;51.950;5.902;2024-01-10T12:17:06;6.65;;;3.38;;
38465;SDS011;24244;51.950;5.902;2024-01-10T12:19:36;8.13;;;3.63;;
38465;SDS011;24244;51.950;5.902;2024-01-10T12:22:06;8.32;;;4.20;;
38465;SDS011;24244;51.950;5.902;2024-01-10T12:24:38;7.70;;;4.65;;
38465;SDS011;24244;51.950;5.902;2024-01-10T12:27:09;8.80;;;3.38;;
38465;SDS011;24244;51.950;5.902;2024-01-10T12:29:36;8.43;;;3.47;;
38465;SDS011;24244;51.950;5.902;2024-01-10T12:32:03;8.68;;;3.78;;
38465;SDS011;24244;51.950;5.902;2024-01-10T12:34:30;8.65;;;4.13;;
38465;SDS011;24244;51.950;5.902;2024-01-10T12:36:58;8.65;;;3.60;;
38465;SDS011;24244;51.950;5.902;2024-01-10T12:39:26;7.13;;;4.45;;
38465;SDS011;24244;51.950;5.902;2024-01-10T12:41:57;7.93;;;4.13;;
38465;SDS011;24244;51.950;5.902;2024-01-10T12:44:27;7.20;;;3.92;;
38465;SDS011;24244;51.950;5.902;2024-01-10T12:46:56;9.68;;;3.78;;
38465;SDS011;24244;51.950;5.902;2024-01-10T12:49:23;6.47;;;3.33;;
38465;SDS011;24244;51.950;5.902;2024-01-10T12:51:52;8.32;;;3.60;;
38465;SDS011;24244;51.950;5.902;2024-01-10T12:54:20;5.97;;;3.38;;
38465;SDS011;24244;51.950;5.902;2024-01-10T12:56:47;8.23;;;4.43;;
38465;SDS011;24244;51.950;5.902;2024-01-10T12:59:14;8.13;;;4.00;;
38465;SDS011;24244;51.950;5.902;2024-01-10T13:01:41;8.48;;;3.30;;
38465;SDS011;24244;51.950;5.902;2024-01-10T13:04:08;6.78;;;3.78;;
38465;SDS011;24244;51.950;5.902;2024-01-10T13:06:38;7.72;;;3.67;;
38465;SDS011;24244;51.950;5.902;2024-01-10T13:09:07;8.20;;;4.13;;
38465;SDS011;24244;51.950;5.902;2024-01-10T13:11:35;8.77;;;4.22;;
38465;SDS011;24244;51.950;5.902;2024-01-10T13:14:02;10.13;;;3.95;;
38465;SDS011;24244;51.950;5.902;2024-01-10T13:16:29;7.63;;;3.45;;
38465;SDS011;24244;51.950;5.902;2024-01-10T13:19:04;8.50;;;4.60;;
38465;SDS011;24244;51.950;5.902;2024-01-10T13:21:31;7.30;;;3.85;;
38465;SDS011;24244;51.950;5.902;2024-01-10T13:23:58;8.10;;;3.63;;
38465;SDS011;24244;51.950;5.902;2024-01-10T13:26:25;8.35;;;3.33;;
38465;SDS011;24244;51.950;5.902;2024-01-10T13:28:53;8.73;;;3.58;;
38465;SDS011;24244;51.950;5.902;2024-01-10T13:31:20;7.55;;;4.53;;
38465;SDS011;24244;51.950;5.902;2024-01-10T13:33:52;7.15;;;3.35;;
38465;SDS011;24244;51.950;5.902;2024-01-10T13:36:21;7.57;;;3.08;;
38465;SDS011;24244;51.950;5.902;2024-01-10T13:38:48;6.72;;;3.00;;
38465;SDS011;24244;51.950;5.902;2024-01-10T13:41:15;9.82;;;4.25;;
38465;SDS011;24244;51.950;5.902;2024-01-10T13:43:43;6.72;;;3.83;;
38465;SDS011;24244;51.950;5.902;2024-01-10T13:46:11;8.82;;;4.18;;
38465;SDS011;24244;51.950;5.902;2024-01-10T13:48:38;9.02;;;4.03;;
38465;SDS011;24244;51.950;5.902;2024-01-10T13:51:05;8.68;;;3.80;;
38465;SDS011;24244;51.950;5.902;2024-01-10T13:53:33;7.72;;;3.65;;
38465;SDS011;24244;51.950;5.902;2024-01-10T13:56:00;7.93;;;4.18;;
38465;SDS011;24244;51.950;5.902;2024-01-10T13:58:27;7.35;;;3.58;;
38465;SDS011;24244;51.950;5.902;2024-01-10T14:00:54;8.10;;;3.90;;
38465;SDS011;24244;51.950;5.902;2024-01-10T14:03:23;9.98;;;3.88;;
38465;SDS011;24244;51.950;5.902;2024-01-10T14:05:50;8.07;;;3.85;;
38465;SDS011;24244;51.950;5.902;2024-01-10T14:08:17;6.45;;;5.18;;
38465;SDS011;24244;51.950;5.902;2024-01-10T14:10:44;8.93;;;4.43;;
38465;SDS011;24244;51.950;5.902;2024-01-10T14:13:11;8.57;;;4.70;;
38465;SDS011;24244;51.950;5.902;2024-01-10T14:15:38;7.45;;;3.22;;
38465;SDS011;24244;51.950;5.902;2024-01-10T14:18:05;6.30;;;3.10;;
38465;SDS011;24244;51.950;5.902;2024-01-10T14:20:35;8.55;;;3.58;;
38465;SDS011;24244;51.950;5.902;2024-01-10T14:23:04;6.43;;;3.55;;
38465;SDS011;24244;51.950;5.902;2024-01-10T14:25:32;7.40;;;3.58;;
38465;SDS011;24244;51.950;5.902;2024-01-10T14:27:59;6.43;;;3.75;;
38465;SDS011;24244;51.950;5.902;2024-01-10T14:30:26;6.88;;;3.78;;
38465;SDS011;24244;51.950;5.902;2024-01-10T14:32:53;6.35;;;3.05;;
38465;SDS011;24244;51.950;5.902;2024-01-10T14:35:20;6.88;;;3.25;;
38465;SDS011;24244;51.950;5.902;2024-01-10T14:37:49;7.93;;;3.83;;
38465;SDS011;24244;51.950;5.902;2024-01-10T14:40:16;7.85;;;4.15;;
38465;SDS011;24244;51.950;5.902;2024-01-10T14:42:43;8.02;;;3.58;;
38465;SDS011;24244;51.950;5.902;2024-01-10T14:45:09;6.57;;;3.95;;
38465;SDS011;24244;51.950;5.902;2024-01-10T14:47:37;7.45;;;3.45;;
38465;SDS011;24244;51.950;5.902;2024-01-10T14:50:05;7.55;;;3.58;;
38465;SDS011;24244;51.950;5.902;2024-01-10T14:52:33;7.68;;;3.25;;
38465;SDS011;24244;51.950;5.902;2024-01-10T14:55:01;7.88;;;3.65;;
38465;SDS011;24244;51.950;5.902;2024-01-10T14:57:31;5.38;;;3.35;;
38465;SDS011;24244;51.950;5.902;2024-01-10T14:59:58;7.07;;;3.00;;
38465;SDS011;24244;51.950;5.902;2024-01-10T15:02:26;6.57;;;3.40;;